Aeroporto :
LOGIN :

Iscrizione | Disclaimer

   EN    FR    IT 

 










Sommario :    VFR   VFR Marginale   IFR   IFR Intensivo   IFR Molto Intensivo
Visibilità : 
Base nubi : 
>= 8 km
>= 3000ft
5 / 8 km
1000 / 3000 ft
1500m / 5 km
500 / 1000 ft
800 / 1500m
200 / 500 ft
< 800m
< 200 ft
Simboli :   Temporali  Nebbia  Neve Forte  Precipitazioni Forti  Vento > 20 kt
SIGMETs :   Varie  Temporali  Ghiacco  Turbolenza  Onda orograficha  Ceneri Vulcaniche






- Altitudine del aeroporto : 341 ft


EPMO - Modlin

ULTIMO METAR :
  • 171230Z 09011KT CAVOK 15/08 Q1016

METARs OBSOLETI :
  • 171200Z 10010KT CAVOK 15/09 Q1016
  • 171130Z 11010KT CAVOK 15/09 Q1017
  • 171100Z 11010KT CAVOK 14/09 Q1017
  • 171030Z 09008KT CAVOK 14/10 Q1017
  • 171000Z 09007KT CAVOK 13/10 Q1017

TAF TAF EPMO
Valido dal 17 a 12 ore il 18 a 12 ore UTC


171130Z 1712/1812 12010KT CAVOK
BECMG 1716/1718 SCT007 BKN012
PROB40 1717/1806 14015G25KT 3000 BR BKN004
PROB40
TEMPO 1802/1808 0600 FG OVC002
BECMG 1809/1812 CAVOK



MetMap, La meteo Aeronautica in un colpo d'occhio ! - Copyright ORBIFLY Dicembre 2007 - Disclaimer

ORBIFLY MET'MAP TEAM :

Programmazione e sviluppo : Alexandra Zaïnal
Concezione e sviluppo : Baudouin d'Aumeries
Co-Programmazione e sviluppo : Marc-Olivier Méhu
Supporto tecnico e logistico : Manuel Goepfert
Aiuto per la traduzione : Arnaldo La Scala

Contatto : metmap@orbifly.com




FONTI E CREDITI :

   NOAA